createdAt,value
2018-11-12T05:43:37.349Z,26.77
2018-11-12T05:46:06.149Z,25.60
2018-11-12T05:48:34.497Z,23.23
2018-11-12T05:51:03.405Z,24.43
2018-11-12T05:53:31.776Z,24.40
2018-11-12T05:56:00.496Z,24.63
2018-11-12T05:58:28.872Z,24.07
2018-11-12T06:00:57.451Z,22.90
2018-11-12T06:03:26.449Z,23.53
2018-11-12T06:05:54.824Z,21.43
2018-11-12T06:08:23.362Z,21.20
2018-11-12T06:10:51.744Z,21.13
2018-11-12T06:13:20.289Z,20.80
2018-11-12T06:15:48.962Z,20.70
2018-11-12T06:18:17.333Z,20.50
2018-11-12T06:20:45.839Z,21.57
2018-11-12T06:23:14.424Z,21.67
2018-11-12T06:25:42.794Z,20.87
2018-11-12T06:28:11.188Z,21.37
2018-11-12T06:30:39.844Z,20.87
2018-11-12T06:33:08.221Z,22.60
2018-11-12T06:35:37.589Z,23.23
2018-11-12T06:38:06.262Z,21.23
2018-11-12T06:40:34.689Z,20.93
2018-11-12T06:43:13.501Z,19.83
2018-11-12T06:45:41.825Z,18.40
2018-11-12T06:48:10.192Z,18.90
2018-11-12T06:50:38.615Z,18.00
2018-11-12T06:53:07.340Z,16.60
2018-11-12T06:55:35.688Z,18.03
2018-11-12T06:58:04.317Z,16.43
2018-11-12T07:00:34.193Z,16.37
2018-11-12T07:03:02.628Z,15.97
2018-11-12T07:05:31.952Z,15.90
2018-11-12T07:08:00.869Z,14.83
2018-11-12T07:10:30.247Z,14.63
2018-11-12T07:13:00.191Z,13.63
2018-11-12T07:15:29.424Z,13.57
2018-11-12T07:17:58.429Z,14.50
2018-11-12T07:20:27.700Z,15.33
2018-11-12T07:22:56.312Z,17.20
2018-11-12T07:25:26.223Z,16.40
2018-11-12T07:27:54.878Z,18.83
2018-11-12T07:30:24.588Z,17.73
2018-11-12T07:32:54.223Z,16.83
2018-11-12T07:35:23.262Z,18.07
2018-11-12T07:37:53.160Z,17.87
2018-11-12T07:40:21.974Z,13.23
2018-11-12T07:42:51.111Z,11.87
2018-11-12T07:45:21.501Z,12.77
2018-11-12T07:47:51.028Z,13.43
2018-11-12T07:50:21.199Z,10.97
2018-11-12T07:52:49.638Z,10.67
2018-11-12T07:55:21.542Z,12.00
2018-11-12T07:57:51.493Z,10.70
2018-11-12T08:00:22.047Z,18.83
2018-11-12T08:02:54.687Z,13.73
2018-11-12T08:05:23.111Z,14.93
2018-11-12T08:07:51.478Z,11.87
2018-11-12T08:10:20.510Z,13.00
2018-11-12T08:12:49.036Z,13.03
2018-11-12T08:15:19.211Z,12.17
2018-11-12T08:17:47.952Z,12.50
2018-11-12T08:20:17.973Z,12.43
2018-11-12T08:22:47.979Z,12.40
2018-11-12T08:25:16.577Z,11.47
2018-11-12T08:27:45.974Z,12.37
2018-11-12T08:30:19.917Z,10.40
2018-11-12T08:32:49.549Z,8.97
2018-11-12T08:35:18.628Z,6.60
2018-11-12T08:37:47.980Z,6.80
2018-11-12T08:40:18.110Z,6.40
2018-11-12T08:42:46.560Z,6.20
2018-11-12T08:45:15.573Z,6.93
2018-11-12T08:47:45.657Z,6.97
2018-11-12T08:50:16.617Z,6.93
2018-11-12T08:52:46.527Z,7.33
2018-11-12T08:55:16.574Z,7.90
2018-11-12T08:57:46.688Z,6.97
2018-11-12T09:00:15.806Z,6.90
2018-11-12T09:02:44.470Z,6.90
2018-11-12T09:05:14.392Z,6.60
2018-11-12T09:07:44.320Z,6.90
2018-11-12T09:10:14.912Z,6.80
2018-11-12T09:12:44.000Z,9.50
2018-11-12T09:15:13.487Z,6.80
2018-11-12T09:17:42.720Z,6.53
2018-11-12T09:20:13.338Z,6.53
2018-11-12T09:22:41.976Z,6.60
2018-11-12T09:25:13.921Z,6.90
2018-11-12T09:27:42.322Z,6.77
2018-11-12T09:30:14.221Z,7.00
2018-11-12T09:32:43.203Z,6.90
2018-11-12T09:35:41.989Z,6.87
2018-11-12T09:38:11.052Z,7.00
2018-11-12T09:40:39.892Z,6.50
2018-11-12T09:43:08.526Z,6.30
2018-11-12T09:45:36.936Z,6.20
2018-11-12T09:48:05.589Z,6.80
2018-11-12T09:50:34.227Z,7.17
2018-11-12T09:53:03.849Z,6.80
2018-11-12T09:55:33.473Z,7.30
2018-11-12T09:58:03.380Z,6.50
2018-11-12T10:00:32.248Z,6.90
2018-11-12T10:03:01.475Z,7.00
2018-11-12T10:05:31.031Z,7.23
2018-11-12T10:08:04.660Z,7.83
2018-11-12T10:10:37.538Z,7.53
2018-11-12T10:13:08.032Z,7.20
2018-11-12T10:15:36.860Z,7.80
2018-11-12T10:18:06.206Z,7.73
2018-11-12T10:20:31.341Z,7.97
2018-11-12T10:23:00.002Z,7.50
2018-11-12T10:25:28.368Z,7.60
2018-11-12T10:27:56.746Z,7.40
2018-11-12T10:30:25.128Z,8.00
2018-11-12T10:32:54.159Z,7.97
2018-11-12T10:35:22.861Z,8.10
2018-11-12T10:37:51.245Z,7.77
2018-11-12T10:40:21.725Z,8.20
2018-11-12T10:42:50.260Z,8.13
2018-11-12T10:45:18.735Z,8.27
2018-11-12T10:47:48.780Z,7.17
2018-11-12T10:50:17.332Z,8.03
2018-11-12T10:52:45.900Z,8.00
2018-11-12T10:55:16.326Z,8.20
2018-11-12T10:57:45.273Z,7.83
2018-11-12T11:00:20.534Z,7.77
2018-11-12T11:02:54.604Z,7.20
2018-11-12T11:05:23.385Z,7.73
2018-11-12T11:07:52.672Z,7.93
2018-11-12T11:10:22.164Z,8.57
2018-11-12T11:12:50.595Z,9.77
2018-11-12T11:15:19.386Z,12.40
2018-11-12T11:17:48.435Z,12.10
2018-11-12T11:20:17.275Z,11.70
2018-11-12T11:22:46.185Z,10.20
2018-11-12T11:25:14.698Z,12.07
2018-11-12T11:27:43.656Z,10.30
2018-11-12T11:30:15.198Z,9.97
2018-11-12T11:32:44.428Z,9.90
2018-11-12T11:35:14.541Z,10.07
2018-11-12T11:37:43.068Z,10.13
2018-11-12T11:40:17.747Z,10.37
2018-11-12T11:42:46.265Z,10.67
2018-11-12T11:45:15.533Z,10.77
2018-11-12T11:47:44.984Z,10.33
2018-11-12T11:50:17.137Z,10.67
2018-11-12T11:52:45.985Z,11.13
2018-11-12T11:55:16.758Z,13.03
2018-11-12T11:57:45.656Z,12.80
2018-11-12T12:00:18.977Z,13.63
2018-11-12T12:02:48.803Z,12.40
2018-11-12T12:05:18.269Z,13.47
2018-11-12T12:07:48.185Z,13.80
2018-11-12T12:10:17.388Z,15.07
2018-11-12T12:12:47.398Z,15.53
2018-11-12T12:15:18.358Z,15.10
2018-11-12T12:17:46.950Z,14.63
2018-11-12T12:20:19.318Z,15.47
2018-11-12T12:22:48.009Z,15.13
2018-11-12T12:25:17.326Z,15.67
2018-11-12T12:27:46.464Z,17.97
2018-11-12T12:30:18.023Z,17.00
2018-11-12T12:32:47.634Z,16.77
2018-11-12T12:35:16.516Z,17.20
2018-11-12T12:37:46.302Z,17.90
2018-11-12T12:40:16.438Z,19.23
2018-11-12T12:42:45.535Z,19.83
2018-11-12T12:45:16.473Z,18.90
2018-11-12T12:47:45.467Z,19.37
2018-11-12T12:50:15.162Z,18.70
2018-11-12T12:52:43.877Z,18.80
2018-11-12T12:55:13.478Z,17.77
2018-11-12T12:57:42.629Z,17.37
2018-11-12T13:00:16.696Z,16.93
2018-11-12T13:02:45.216Z,16.60
2018-11-12T13:05:14.350Z,17.77
2018-11-12T13:07:43.214Z,17.30
2018-11-12T13:10:13.584Z,16.93
2018-11-12T13:12:42.596Z,17.80
2018-11-12T13:15:13.796Z,17.20
2018-11-12T13:17:43.017Z,16.53
2018-11-12T13:20:13.390Z,17.47
2018-11-12T13:22:42.834Z,15.77
2018-11-12T13:25:11.951Z,17.10
2018-11-12T13:27:40.966Z,17.20
2018-11-12T13:30:13.037Z,16.90
2018-11-12T13:32:42.540Z,16.80
2018-11-12T13:35:12.863Z,16.97
2018-11-12T13:37:41.339Z,17.47
2018-11-12T13:40:14.558Z,17.97
2018-11-12T13:42:44.742Z,17.73
2018-11-12T13:45:13.566Z,17.77
2018-11-12T13:47:42.017Z,18.07
2018-11-12T13:50:15.841Z,17.57
2018-11-12T13:52:44.904Z,17.73
2018-11-12T13:55:14.369Z,17.03
2018-11-12T13:57:49.725Z,17.27
2018-11-12T14:00:22.973Z,17.00
2018-11-12T14:02:53.217Z,18.15
2018-11-12T14:05:26.214Z,16.67
2018-11-12T14:07:56.550Z,16.93
2018-11-12T14:10:27.806Z,15.97
2018-11-12T14:12:57.484Z,15.97
2018-11-12T14:15:26.460Z,16.10
2018-11-12T14:17:55.446Z,16.23
2018-11-12T14:20:25.337Z,15.57
2018-11-12T14:22:53.940Z,15.53
2018-11-12T14:25:23.609Z,14.20
2018-11-12T14:27:53.366Z,13.47
2018-11-12T14:30:24.981Z,12.80
2018-11-12T14:32:53.868Z,11.83
2018-11-12T14:35:22.441Z,12.57
2018-11-12T14:37:50.857Z,13.00
2018-11-12T14:40:20.215Z,12.80
2018-11-12T14:42:48.708Z,12.60
2018-11-12T14:45:19.076Z,13.43
2018-11-12T14:47:48.087Z,12.80
2018-11-12T14:50:16.705Z,12.87
2018-11-12T14:52:45.369Z,12.57
2018-11-12T14:55:15.395Z,12.07
2018-11-12T14:57:43.995Z,12.40
2018-11-12T15:00:16.875Z,12.23
2018-11-12T15:02:45.600Z,12.13
2018-11-12T15:05:15.212Z,12.17
2018-11-12T15:07:43.688Z,12.20
2018-11-12T15:10:13.199Z,11.77
2018-11-12T15:12:42.485Z,12.40
2018-11-12T15:15:12.261Z,12.60
2018-11-12T15:17:40.656Z,12.53
2018-11-12T15:20:14.964Z,13.23
2018-11-12T15:22:43.691Z,12.77
2018-11-12T15:25:15.726Z,13.30
2018-11-12T15:27:44.797Z,13.20
2018-11-12T15:30:15.940Z,13.40
2018-11-12T15:32:45.216Z,13.60
2018-11-12T15:35:14.135Z,13.80
2018-11-12T15:37:43.742Z,13.43
2018-11-12T15:40:13.238Z,13.57
2018-11-12T15:42:42.212Z,14.10
2018-11-12T15:45:15.027Z,14.17
2018-11-12T15:47:44.643Z,14.17
2018-11-12T15:50:15.461Z,14.20
2018-11-12T15:52:44.788Z,14.83
2018-11-12T15:55:15.828Z,13.87
2018-11-12T15:57:43.220Z,14.30
2018-11-12T16:00:15.187Z,15.43
2018-11-12T16:02:43.851Z,14.60
2018-11-12T16:05:13.414Z,16.10
2018-11-12T16:07:42.709Z,14.67
2018-11-12T16:10:14.605Z,14.70
2018-11-12T16:12:43.461Z,13.90
2018-11-12T16:15:13.519Z,14.87
2018-11-12T16:17:42.369Z,14.23
2018-11-12T16:20:17.651Z,15.13
2018-11-12T16:22:47.446Z,15.23
2018-11-12T16:25:17.352Z,15.27
2018-11-12T16:27:45.756Z,14.90
2018-11-12T16:30:14.445Z,15.07
2018-11-12T16:32:43.967Z,15.20
2018-11-12T16:35:17.445Z,15.00
2018-11-12T16:37:46.802Z,16.30
2018-11-12T16:40:15.311Z,16.27
2018-11-12T16:42:45.526Z,15.33
2018-11-12T16:45:14.957Z,16.47
2018-11-12T16:47:43.685Z,17.50
2018-11-12T16:50:13.395Z,17.20
2018-11-12T16:52:41.888Z,17.20
2018-11-12T16:55:14.180Z,16.23
2018-11-12T16:57:42.660Z,17.00
2018-11-12T17:00:13.133Z,17.47
2018-11-12T17:02:42.629Z,18.00
2018-11-12T17:05:13.485Z,17.40
2018-11-12T17:07:42.466Z,18.57
2018-11-12T17:10:13.105Z,18.27
2018-11-12T17:12:42.636Z,17.97
2018-11-12T17:15:12.463Z,17.03
2018-11-12T17:17:40.970Z,18.87
2018-11-12T17:20:11.016Z,18.70
2018-11-12T17:22:39.828Z,20.47
2018-11-12T17:25:10.383Z,19.13
2018-11-12T17:27:38.885Z,20.00
2018-11-12T17:30:11.181Z,20.17
2018-11-12T17:32:40.047Z,18.83
2018-11-12T17:35:10.550Z,20.23
2018-11-12T17:37:38.986Z,19.47
2018-11-12T17:40:10.738Z,20.80
2018-11-12T17:42:39.227Z,21.20
2018-11-12T17:45:11.192Z,21.80
2018-11-12T17:47:39.921Z,21.37
2018-11-12T17:50:09.818Z,21.77
2018-11-12T17:52:38.927Z,20.87
2018-11-12T17:55:07.867Z,20.87
2018-11-12T17:57:37.150Z,23.10
2018-11-12T18:00:12.335Z,20.67
2018-11-12T18:02:40.799Z,23.43
2018-11-12T18:05:10.009Z,23.13
2018-11-12T18:07:38.807Z,23.87
2018-11-12T18:10:08.300Z,20.40
2018-11-12T18:12:37.500Z,23.10
2018-11-12T18:15:09.973Z,23.27
2018-11-12T18:17:38.440Z,22.10
2018-11-12T18:20:11.750Z,23.50
2018-11-12T18:22:40.551Z,21.87
2018-11-12T18:25:09.900Z,21.13
2018-11-12T18:27:38.964Z,20.30
2018-11-12T18:30:17.108Z,19.67
2018-11-12T18:32:46.248Z,21.17
2018-11-12T18:35:14.778Z,21.03
2018-11-12T18:37:43.508Z,21.03
2018-11-12T18:40:14.139Z,21.13
2018-11-12T18:42:42.586Z,22.13
2018-11-12T18:45:14.418Z,23.00
2018-11-12T18:47:43.664Z,22.93
2018-11-12T18:50:14.964Z,22.03
2018-11-12T18:52:43.742Z,20.87
2018-11-12T18:55:12.204Z,24.60
2018-11-12T18:57:42.687Z,29.03
2018-11-12T19:00:13.091Z,27.87
2018-11-12T19:02:41.516Z,28.67
2018-11-12T19:05:16.418Z,28.80
2018-11-12T19:07:46.398Z,28.60
2018-11-12T19:10:16.374Z,28.13
2018-11-12T19:12:45.899Z,27.63
2018-11-12T19:15:16.992Z,28.53
2018-11-12T19:17:47.552Z,27.07
2018-11-12T19:20:17.193Z,26.43
2018-11-12T19:22:45.700Z,26.57
2018-11-12T19:25:14.800Z,25.20
2018-11-12T19:27:44.164Z,26.57
2018-11-12T19:30:15.120Z,26.00
2018-11-12T19:32:44.890Z,25.17
2018-11-12T19:35:14.819Z,24.93
2018-11-12T19:37:43.556Z,25.27
2018-11-12T19:40:15.606Z,26.37
2018-11-12T19:42:45.480Z,27.00
2018-11-12T19:45:14.592Z,25.40
2018-11-12T19:47:43.747Z,24.77
2018-11-12T19:50:20.456Z,23.30
2018-11-12T19:52:49.947Z,28.20
2018-11-12T19:55:18.449Z,24.87
2018-11-12T19:57:47.517Z,23.33
2018-11-12T20:00:20.052Z,21.60
2018-11-12T20:02:49.720Z,21.33
2018-11-12T20:05:18.323Z,26.70
2018-11-12T20:07:46.764Z,24.20
2018-11-12T20:10:17.053Z,21.20
2018-11-12T20:12:45.550Z,24.97
2018-11-12T20:15:15.652Z,26.63
2018-11-12T20:17:45.506Z,25.00
2018-11-12T20:20:17.688Z,25.13
2018-11-12T20:22:47.112Z,25.70
2018-11-12T20:25:17.067Z,24.50
2018-11-12T20:27:46.373Z,23.67
2018-11-12T20:30:18.909Z,21.43
2018-11-12T20:32:48.101Z,20.33
2018-11-12T20:35:17.067Z,19.17
2018-11-12T20:37:45.463Z,18.37
2018-11-12T20:40:15.055Z,18.50
2018-11-12T20:42:44.472Z,18.80
2018-11-12T20:45:14.592Z,18.70
2018-11-12T20:47:44.221Z,18.83
2018-11-12T20:50:16.561Z,19.00
2018-11-12T20:52:45.748Z,19.13
2018-11-12T20:55:15.521Z,19.27
2018-11-12T20:57:44.460Z,18.10
2018-11-12T21:00:18.476Z,16.67
2018-11-12T21:02:48.710Z,16.97
2018-11-12T21:05:17.847Z,17.63
2018-11-12T21:07:46.333Z,16.70
2018-11-12T21:10:16.830Z,16.83
2018-11-12T21:12:46.471Z,17.13
2018-11-12T21:15:16.358Z,17.10
2018-11-12T21:17:45.317Z,16.20
2018-11-12T21:20:17.368Z,16.67
2018-11-12T21:22:45.847Z,17.50
2018-11-12T21:25:16.018Z,17.40
2018-11-12T21:27:44.644Z,18.93
2018-11-12T21:30:19.281Z,18.13
2018-11-12T21:32:48.103Z,20.70
2018-11-12T21:35:16.833Z,18.53
2018-11-12T21:37:46.180Z,17.13
2018-11-12T21:40:29.680Z,16.27
2018-11-12T21:42:58.367Z,16.13
2018-11-12T21:45:28.507Z,16.83
2018-11-12T21:47:57.167Z,17.53
2018-11-12T21:50:25.823Z,17.53
2018-11-12T21:52:54.854Z,19.73
2018-11-12T21:55:23.456Z,18.77
2018-11-12T21:57:55.007Z,16.70
2018-11-12T22:00:25.845Z,18.87
2018-11-12T22:03:00.960Z,17.80
2018-11-12T22:05:30.881Z,18.40
2018-11-12T22:08:00.081Z,18.17
2018-11-12T22:10:28.604Z,17.37
2018-11-12T22:12:57.244Z,16.73
2018-11-12T22:15:25.669Z,18.07
2018-11-12T22:17:54.113Z,16.63
2018-11-12T22:20:24.576Z,16.63
2018-11-12T22:22:52.988Z,17.13
2018-11-12T22:25:22.181Z,16.47
2018-11-12T22:27:51.491Z,17.20
2018-11-12T23:02:58.908Z,19.17
2018-11-12T23:05:27.850Z,18.47
2018-11-12T23:07:56.569Z,19.40
2018-11-12T23:10:25.373Z,18.67
2018-11-12T23:12:53.893Z,18.70
